createdAt,value
2023-03-05T00:01:30.520Z,101759.25
2023-03-05T00:04:00.235Z,101763.81
2023-03-05T00:06:30.127Z,101756.63
2023-03-05T00:08:58.474Z,101750.41
2023-03-05T00:11:30.120Z,101751.31
2023-03-05T00:13:59.198Z,101761.28
2023-03-05T00:16:28.240Z,101759.53
2023-03-05T00:18:57.123Z,101756.91
2023-03-05T00:21:28.322Z,101759.59
2023-03-05T00:23:57.426Z,101753.38
2023-03-05T00:26:27.443Z,101750.66
2023-03-05T00:28:56.122Z,101755.22
2023-03-05T00:31:25.968Z,101750.72
2023-03-05T00:33:54.801Z,101744.53
2023-03-05T00:36:24.459Z,101747.25
2023-03-05T00:38:53.835Z,101740.06
2023-03-05T00:41:21.747Z,101740.13
2023-03-05T00:43:49.722Z,101736.53
2023-03-05T00:46:18.270Z,101735.66
2023-03-05T00:48:46.780Z,101737.50
2023-03-05T00:51:14.643Z,101732.13
2023-03-05T00:53:42.646Z,101732.13
2023-03-05T00:56:12.000Z,101729.41
2023-03-05T00:58:40.125Z,101732.25
2023-03-05T01:01:07.999Z,101727.66
2023-03-05T01:03:36.745Z,101720.50
2023-03-05T01:06:08.128Z,101724.09
2023-03-05T01:08:36.364Z,101715.22
2023-03-05T01:11:05.598Z,101722.41
2023-03-05T01:13:35.755Z,101717.84
2023-03-05T01:16:04.500Z,101708.91
2023-03-05T01:18:32.757Z,101708.03
2023-03-05T01:21:00.914Z,101708.03
2023-03-05T01:23:29.120Z,101711.69
2023-03-05T01:25:58.481Z,101707.13
2023-03-05T01:28:26.813Z,101706.25
2023-03-05T01:30:56.174Z,101702.66
2023-03-05T01:33:24.426Z,101696.34
2023-03-05T01:35:52.415Z,101691.88
2023-03-05T01:38:20.471Z,101684.72
2023-03-05T01:40:48.672Z,101684.72
2023-03-05T01:43:28.841Z,101681.00
2023-03-05T01:46:25.304Z,101683.13
2023-03-05T01:48:59.030Z,101679.44
2023-03-05T01:51:31.281Z,101675.84
2023-03-05T01:54:01.333Z,101677.75
2023-03-05T01:56:30.508Z,101666.88
2023-03-05T01:59:03.720Z,101671.44
2023-03-05T02:01:40.715Z,101664.19
2023-03-05T02:04:10.402Z,101669.78
2023-03-05T02:06:40.842Z,101658.06
2023-03-05T02:09:08.822Z,101652.63
2023-03-05T02:11:37.227Z,101644.47
2023-03-05T02:14:12.660Z,101648.16
2023-03-05T02:16:42.886Z,101649.97
2023-03-05T02:19:13.348Z,101638.25
2023-03-05T02:21:44.721Z,101645.44
2023-03-05T02:24:14.760Z,101639.19
2023-03-05T02:26:45.737Z,101641.03
2023-03-05T02:29:18.414Z,101634.63
2023-03-05T02:31:47.816Z,101636.63
2023-03-05T02:34:15.995Z,101636.56
2023-03-05T02:36:45.685Z,101627.44
2023-03-05T02:39:14.027Z,101624.81
2023-03-05T02:41:41.943Z,101618.50
2023-03-05T02:44:09.973Z,101616.66
2023-03-05T02:46:38.053Z,101616.75
2023-03-05T02:49:06.050Z,101609.47
2023-03-05T02:51:34.163Z,101606.88
2023-03-05T02:54:04.238Z,101611.31
2023-03-05T02:56:32.342Z,101608.78
2023-03-05T02:59:01.818Z,101605.19
2023-03-05T03:01:29.896Z,101606.16
2023-03-05T03:03:57.737Z,101609.91
2023-03-05T03:06:25.574Z,101599.03
2023-03-05T03:08:53.585Z,101598.16
2023-03-05T03:11:22.833Z,101595.44
2023-03-05T03:13:53.421Z,101592.66
2023-03-05T03:16:21.479Z,101590.00
2023-03-05T03:18:49.432Z,101584.56
2023-03-05T03:21:22.797Z,101578.19
2023-03-05T03:23:50.774Z,101580.13
2023-03-05T03:26:19.290Z,101579.16
2023-03-05T03:28:49.108Z,101576.34
2023-03-05T03:31:17.116Z,101578.38
2023-03-05T03:33:45.398Z,101576.63
2023-03-05T03:36:13.878Z,101573.03
2023-03-05T03:38:41.735Z,101570.38
2023-03-05T03:41:10.054Z,101562.31
2023-03-05T03:43:38.185Z,101565.03
2023-03-05T03:46:08.039Z,101561.38
2023-03-05T03:48:36.500Z,101553.38
2023-03-05T03:51:06.415Z,101557.84
2023-03-05T03:53:34.406Z,101559.81
2023-03-05T03:56:02.260Z,101543.59
2023-03-05T03:58:30.716Z,101549.97
2023-03-05T04:00:58.550Z,101543.75
2023-03-05T04:03:27.793Z,101544.63
2023-03-05T04:05:55.572Z,101540.22
2023-03-05T04:08:23.387Z,101537.53
2023-03-05T04:10:51.178Z,101537.63
2023-03-05T04:13:19.015Z,101535.88
2023-03-05T04:15:47.127Z,101532.28
2023-03-05T04:18:15.001Z,101526.94
2023-03-05T04:20:44.195Z,101529.56
2023-03-05T04:23:12.190Z,101525.19
2023-03-05T04:25:40.150Z,101521.59
2023-03-05T04:28:08.047Z,101522.53
2023-03-05T04:30:35.837Z,101521.66
2023-03-05T04:33:03.826Z,101513.59
2023-03-05T04:35:32.214Z,101504.59
2023-03-05T04:38:01.536Z,101503.53
2023-03-05T04:40:29.531Z,101497.31
2023-03-05T04:43:00.124Z,101499.19
2023-03-05T04:45:28.107Z,101500.03
2023-03-05T04:47:55.887Z,101500.91
2023-03-05T04:50:23.724Z,101500.13
2023-03-05T04:52:51.473Z,101503.72
2023-03-05T04:55:20.832Z,101499.19
2023-03-05T04:57:48.832Z,101497.50
2023-03-05T05:00:18.220Z,101492.88
2023-03-05T05:02:48.549Z,101498.38
2023-03-05T05:05:19.310Z,101491.19
2023-03-05T05:07:47.133Z,101489.44
2023-03-05T05:10:17.130Z,101490.31
2023-03-05T05:12:46.261Z,101482.09
2023-03-05T05:15:14.290Z,101481.28
2023-03-05T05:17:42.081Z,101475.00
2023-03-05T05:20:15.062Z,101469.47
2023-03-05T05:22:43.160Z,101469.97
2023-03-05T05:25:11.707Z,101466.25
2023-03-05T05:27:40.329Z,101470.50
2023-03-05T05:30:11.287Z,101469.47
2023-03-05T05:32:39.347Z,101470.50
2023-03-05T05:35:08.299Z,101453.34
2023-03-05T05:37:36.081Z,101457.03
2023-03-05T05:40:06.447Z,101449.88
2023-03-05T05:42:34.346Z,101449.88
2023-03-05T05:45:02.963Z,101445.28
2023-03-05T05:47:32.160Z,101455.31
2023-03-05T05:50:00.065Z,101456.16
2023-03-05T05:52:28.080Z,101455.31
2023-03-05T05:54:55.985Z,101458.97
2023-03-05T05:57:24.898Z,101452.59
2023-03-05T05:59:53.222Z,101452.75
2023-03-05T06:02:21.175Z,101454.50
2023-03-05T06:04:50.487Z,101452.66
2023-03-05T06:07:19.583Z,101453.63
2023-03-05T06:09:47.346Z,101450.03
2023-03-05T06:12:15.311Z,101451.88
2023-03-05T06:14:43.407Z,101448.28
2023-03-05T06:17:14.760Z,101450.13
2023-03-05T06:19:45.372Z,101443.00
2023-03-05T06:22:15.232Z,101449.22
2023-03-05T06:24:43.183Z,101449.31
2023-03-05T06:27:11.213Z,101452.09
2023-03-05T06:29:39.260Z,101452.09
2023-03-05T06:32:07.839Z,101447.66
2023-03-05T06:34:35.987Z,101442.31
2023-03-05T06:37:04.103Z,101445.03
2023-03-05T06:39:33.952Z,101442.31
2023-03-05T06:42:02.099Z,101447.84
2023-03-05T06:44:29.909Z,101442.47
2023-03-05T06:46:57.770Z,101451.50
2023-03-05T06:49:26.016Z,101443.38
2023-03-05T06:51:53.837Z,101448.78
2023-03-05T06:54:21.779Z,101456.94
2023-03-05T06:56:51.116Z,101451.41
2023-03-05T06:59:19.115Z,101448.72
2023-03-05T07:01:46.926Z,101446.88
2023-03-05T07:04:15.317Z,101450.47
2023-03-05T07:06:43.909Z,101442.31
2023-03-05T07:09:14.672Z,101446.78
2023-03-05T07:11:43.001Z,101446.78
2023-03-05T07:14:12.097Z,101431.38
2023-03-05T07:16:40.006Z,101433.22
2023-03-05T07:19:10.885Z,101428.69
2023-03-05T07:21:40.128Z,101432.25
2023-03-05T07:24:09.049Z,101427.59
2023-03-05T07:26:37.135Z,101423.06
2023-03-05T07:29:05.511Z,101430.16
2023-03-05T07:31:34.876Z,101432.88
2023-03-05T07:34:04.236Z,101431.03
2023-03-05T07:36:34.772Z,101431.91
2023-03-05T07:39:04.609Z,101425.59
2023-03-05T07:41:32.478Z,101428.31
2023-03-05T07:44:00.268Z,101432.78
2023-03-05T07:46:31.344Z,101422.81
2023-03-05T07:49:01.311Z,101422.81
2023-03-05T07:51:29.641Z,101420.09
2023-03-05T07:53:59.549Z,101420.09
2023-03-05T07:56:31.649Z,101416.41
2023-03-05T07:58:59.858Z,101416.59
2023-03-05T08:01:27.667Z,101419.13
2023-03-05T08:03:55.466Z,101414.59
2023-03-05T08:06:24.768Z,101411.75
2023-03-05T08:08:52.576Z,101415.34
2023-03-05T08:11:20.398Z,101407.13
2023-03-05T08:13:48.269Z,101406.16
2023-03-05T08:16:18.449Z,101405.22
2023-03-05T08:18:46.825Z,101402.50
2023-03-05T08:21:19.185Z,101402.41
2023-03-05T08:23:48.909Z,101398.03
2023-03-05T08:26:19.075Z,101396.97
2023-03-05T08:28:47.173Z,101392.50
2023-03-05T08:31:17.024Z,101394.16
2023-03-05T08:33:47.543Z,101381.66
2023-03-05T08:36:15.389Z,101387.00
2023-03-05T08:38:44.613Z,101384.28
2023-03-05T08:41:14.281Z,101384.16
2023-03-05T08:43:42.594Z,101377.84
2023-03-05T08:46:12.794Z,101381.38
2023-03-05T08:48:40.771Z,101383.22
2023-03-05T08:51:09.619Z,101374.09
2023-03-05T08:53:37.464Z,101377.69
2023-03-05T08:56:05.729Z,101380.31
2023-03-05T08:58:35.476Z,101372.09
2023-03-05T09:01:03.576Z,101366.66
2023-03-05T09:03:31.599Z,101371.22
2023-03-05T09:06:04.237Z,101368.31
2023-03-05T09:08:34.316Z,101369.38
2023-03-05T09:11:05.732Z,101363.88
2023-03-05T09:13:35.731Z,101362.78
2023-03-05T09:16:06.175Z,101363.66
2023-03-05T09:18:36.647Z,101352.81
2023-03-05T09:21:06.274Z,101356.31
2023-03-05T09:23:34.228Z,101349.03
2023-03-05T09:26:02.423Z,101348.16
2023-03-05T09:28:30.226Z,101347.22
2023-03-05T09:31:03.937Z,101348.75
2023-03-05T09:33:32.327Z,101338.88
2023-03-05T09:36:01.250Z,101340.63
2023-03-05T09:38:29.049Z,101343.31
2023-03-05T09:41:05.575Z,101334.13
2023-03-05T09:43:45.265Z,101331.41
2023-03-05T09:46:39.104Z,101332.22
2023-03-05T09:49:33.363Z,101328.63
2023-03-05T09:52:08.988Z,101331.25
2023-03-05T09:54:42.542Z,101324.94
2023-03-05T09:57:17.504Z,101335.59
2023-03-05T09:59:51.064Z,101332.00
2023-03-05T10:02:26.590Z,101331.03
2023-03-05T10:04:59.168Z,101324.84
2023-03-05T10:07:31.038Z,101332.22
2023-03-05T10:10:01.245Z,101328.53
2023-03-05T10:12:42.434Z,101323.97
2023-03-05T10:15:13.280Z,101315.84
2023-03-05T10:17:57.780Z,101314.84
2023-03-05T10:20:47.167Z,101314.00
2023-03-05T10:23:25.542Z,101313.88
2023-03-05T10:26:05.042Z,101302.94
2023-03-05T10:28:43.631Z,101301.09
2023-03-05T10:31:38.599Z,101291.88
2023-03-05T10:34:33.280Z,101286.47
2023-03-05T10:37:33.461Z,101283.66
2023-03-05T10:40:15.428Z,101287.03
2023-03-05T10:42:52.038Z,101287.81
2023-03-05T10:45:24.122Z,101291.34
2023-03-05T10:47:56.227Z,101285.91
2023-03-05T10:50:27.928Z,101282.97
2023-03-05T10:53:14.348Z,101270.97
2023-03-05T10:55:42.225Z,101275.44
2023-03-05T10:58:12.813Z,101269.69
2023-03-05T11:00:41.642Z,101268.66
2023-03-05T11:03:11.560Z,101265.53
2023-03-05T11:05:49.392Z,101268.84
2023-03-05T11:08:31.073Z,101257.78
2023-03-05T11:11:12.967Z,101258.56
2023-03-05T11:13:50.928Z,101257.50
2023-03-05T11:16:22.663Z,101260.00
2023-03-05T11:18:50.967Z,101248.97
2023-03-05T11:21:27.559Z,101243.22
2023-03-05T11:24:06.836Z,101242.94
2023-03-05T11:26:38.062Z,101239.13
2023-03-05T11:29:19.315Z,101235.16
2023-03-05T11:31:47.305Z,101229.63
2023-03-05T11:34:31.347Z,101224.66
2023-03-05T11:37:06.990Z,101227.31
2023-03-05T11:39:40.184Z,101225.22
2023-03-05T11:42:13.548Z,101221.34
2023-03-05T11:44:48.591Z,101222.00
2023-03-05T11:47:27.169Z,101221.81
2023-03-05T11:50:02.136Z,101218.22
2023-03-05T11:52:35.026Z,101218.88
2023-03-05T11:55:08.352Z,101206.28
2023-03-05T11:57:45.035Z,101207.81
2023-03-05T12:00:17.097Z,101197.91
2023-03-05T12:02:46.292Z,101198.13
2023-03-05T12:05:17.392Z,101192.47
2023-03-05T12:07:51.530Z,101194.16
2023-03-05T12:10:21.971Z,101185.09
2023-03-05T12:12:58.360Z,101184.06
2023-03-05T12:15:57.538Z,101189.66
2023-03-05T12:18:37.164Z,101174.13
2023-03-05T12:21:08.931Z,101175.88
2023-03-05T12:23:50.555Z,101177.50
2023-03-05T12:26:19.268Z,101164.03
2023-03-05T12:28:59.581Z,101167.41
2023-03-05T12:31:35.373Z,101161.09
2023-03-05T12:34:36.882Z,101150.53
2023-03-05T12:37:10.891Z,101153.81
2023-03-05T12:39:58.241Z,101145.44
2023-03-05T12:42:46.396Z,101144.66
2023-03-05T12:45:35.705Z,101140.97
2023-03-05T12:48:40.874Z,101128.34
2023-03-05T12:51:28.886Z,101117.56
2023-03-05T12:53:57.181Z,101116.69
2023-03-05T12:56:32.741Z,101109.09
2023-03-05T12:59:03.012Z,101106.59
2023-03-05T13:01:41.577Z,101099.09
2023-03-05T13:04:17.793Z,101099.94
2023-03-05T13:06:45.688Z,101097.34
2023-03-05T13:09:19.506Z,101083.50
2023-03-05T13:11:51.564Z,101085.38
2023-03-05T13:14:47.476Z,101080.25
2023-03-05T13:17:35.016Z,101074.63
2023-03-05T13:20:07.179Z,101063.72
2023-03-05T13:22:35.591Z,101066.56
2023-03-05T13:25:14.555Z,101067.19
2023-03-05T13:27:44.591Z,101065.56
2023-03-05T13:30:22.765Z,101057.19
2023-03-05T13:32:53.837Z,101060.88
2023-03-05T13:35:22.519Z,101060.88
2023-03-05T13:37:50.993Z,101056.41
2023-03-05T13:40:24.940Z,101053.59
2023-03-05T13:42:55.762Z,101046.41
2023-03-05T13:45:27.889Z,101045.44
2023-03-05T13:47:57.826Z,101040.22
2023-03-05T13:50:28.337Z,101040.09
2023-03-05T13:52:58.351Z,101034.78
2023-03-05T13:55:27.157Z,101028.47
2023-03-05T13:57:56.276Z,101027.50
2023-03-05T14:00:33.846Z,101024.78
2023-03-05T14:03:09.588Z,101014.09
2023-03-05T14:05:37.598Z,101017.69
2023-03-05T14:08:05.693Z,101016.81
2023-03-05T14:10:35.928Z,101010.41
2023-03-05T14:13:12.787Z,101007.56
2023-03-05T14:15:43.608Z,100999.41
2023-03-05T14:18:20.576Z,100997.56
2023-03-05T14:21:01.649Z,100998.31
2023-03-05T14:23:36.778Z,100996.47
2023-03-05T14:26:28.569Z,100994.72
2023-03-05T14:29:01.459Z,100990.16
2023-03-05T14:31:31.511Z,100988.53
2023-03-05T14:34:04.620Z,100988.09
2023-03-05T14:36:33.584Z,100982.75
2023-03-05T14:39:02.087Z,100977.31
2023-03-05T14:41:40.181Z,100972.53
2023-03-05T14:44:14.544Z,100975.38
2023-03-05T14:46:42.608Z,100963.72
2023-03-05T14:49:10.606Z,100962.72
2023-03-05T14:51:41.460Z,100959.13
2023-03-05T14:54:20.606Z,100950.00
2023-03-05T14:56:49.817Z,100951.06
2023-03-05T14:59:21.287Z,100946.50
2023-03-05T15:01:50.361Z,100937.59
2023-03-05T15:04:20.072Z,100936.72
2023-03-05T15:06:50.936Z,100936.84
2023-03-05T15:09:20.398Z,100933.34
2023-03-05T15:11:49.120Z,100925.28
2023-03-05T15:14:16.900Z,100924.53
2023-03-05T15:16:47.686Z,100919.09
2023-03-05T15:19:15.779Z,100912.03
2023-03-05T15:21:43.562Z,100918.53
2023-03-05T15:24:12.912Z,100914.06
2023-03-05T15:26:40.668Z,100912.41
2023-03-05T15:29:08.635Z,100915.13
2023-03-05T15:31:38.745Z,100908.94
2023-03-05T15:34:08.254Z,100906.22
2023-03-05T15:36:35.970Z,100905.56
2023-03-05T15:39:03.958Z,100902.84
2023-03-05T15:41:31.789Z,100893.03
2023-03-05T15:43:59.547Z,100887.75
2023-03-05T15:46:27.450Z,100877.84
2023-03-05T15:48:55.250Z,100875.22
2023-03-05T15:51:24.489Z,100872.50
2023-03-05T15:53:52.328Z,100872.72
2023-03-05T15:56:20.597Z,100873.69
2023-03-05T15:58:49.875Z,100868.25
2023-03-05T16:01:19.383Z,100870.09
2023-03-05T16:03:47.461Z,100872.94
2023-03-05T16:06:16.456Z,100861.19
2023-03-05T16:08:45.678Z,100861.19
2023-03-05T16:11:14.185Z,100859.34
2023-03-05T16:13:43.103Z,100854.78
2023-03-05T16:16:11.703Z,100850.31
2023-03-05T16:18:44.534Z,100842.03
2023-03-05T16:21:13.874Z,100844.00
2023-03-05T16:23:41.744Z,100844.88
2023-03-05T16:26:12.032Z,100851.06
2023-03-05T16:28:39.829Z,100839.44
2023-03-05T16:31:07.652Z,100837.47
2023-03-05T16:33:35.483Z,100833.03
2023-03-05T16:36:22.737Z,100827.47
2023-03-05T16:38:52.611Z,100821.16
2023-03-05T16:41:24.387Z,100819.31
2023-03-05T16:43:53.484Z,100817.69
2023-03-05T16:46:21.518Z,100823.00
2023-03-05T16:48:49.287Z,100813.00
2023-03-05T16:51:18.099Z,100816.72
2023-03-05T16:53:47.094Z,100813.13
2023-03-05T16:56:15.835Z,100814.72
2023-03-05T16:58:45.366Z,100813.88
2023-03-05T17:01:15.374Z,100818.44
2023-03-05T17:03:43.974Z,100818.56
2023-03-05T17:06:13.718Z,100806.81
2023-03-05T17:08:42.391Z,100814.09
2023-03-05T17:11:17.157Z,100807.78
2023-03-05T17:13:48.870Z,100806.91
2023-03-05T17:16:19.083Z,100802.56
2023-03-05T17:18:46.980Z,100807.03
2023-03-05T17:21:16.476Z,100795.28
2023-03-05T17:23:44.671Z,100796.25
2023-03-05T17:26:14.318Z,100797.22
2023-03-05T17:28:42.456Z,100798.09
2023-03-05T17:31:12.743Z,100798.19
2023-03-05T17:33:41.682Z,100800.91
2023-03-05T17:36:14.988Z,100799.06
2023-03-05T17:38:43.011Z,100795.63
2023-03-05T17:41:11.160Z,100799.22
2023-03-05T17:43:39.110Z,100794.75
2023-03-05T17:46:07.849Z,100792.13
2023-03-05T17:48:39.087Z,100795.72
2023-03-05T17:51:07.548Z,100792.13
2023-03-05T17:53:35.970Z,100788.66
2023-03-05T17:56:07.867Z,100798.44
2023-03-05T17:58:35.761Z,100792.34
2023-03-05T18:01:04.199Z,100790.50
2023-03-05T18:03:32.337Z,100793.31
2023-03-05T18:06:01.572Z,100795.06
2023-03-05T18:08:29.354Z,100783.56
2023-03-05T18:10:57.147Z,100784.53
2023-03-05T18:13:25.045Z,100784.53
2023-03-05T18:15:52.922Z,100780.16
2023-03-05T18:18:20.885Z,100781.91
2023-03-05T18:20:48.853Z,100775.72
2023-03-05T18:23:18.112Z,100782.00
2023-03-05T18:25:46.048Z,100775.81
2023-03-05T18:28:15.263Z,100779.53
2023-03-05T18:30:44.725Z,100775.06
2023-03-05T18:33:18.842Z,100769.63
2023-03-05T18:35:49.534Z,100770.72
2023-03-05T18:38:19.130Z,100775.28
2023-03-05T18:40:47.733Z,100771.78
2023-03-05T18:43:17.137Z,100770.06
2023-03-05T18:45:46.867Z,100765.63
2023-03-05T18:48:14.806Z,100766.59
2023-03-05T18:50:42.988Z,100764.84
2023-03-05T18:53:13.904Z,100755.72
2023-03-05T18:55:45.781Z,100757.69
2023-03-05T18:58:15.429Z,100754.09
2023-03-05T19:00:44.854Z,100758.66
2023-03-05T19:03:13.267Z,100752.44
2023-03-05T19:05:42.145Z,100745.16
2023-03-05T19:08:10.034Z,100750.69
2023-03-05T19:10:39.745Z,100742.56
2023-03-05T19:13:18.707Z,100743.56
2023-03-05T19:15:46.702Z,100740.06
2023-03-05T19:18:14.456Z,100741.91
2023-03-05T19:20:42.352Z,100731.06
2023-03-05T19:23:10.121Z,100737.47
2023-03-05T19:25:37.963Z,100734.75
2023-03-05T19:28:05.786Z,100730.28
2023-03-05T19:30:34.967Z,100734.75
2023-03-05T19:33:03.612Z,100730.50
2023-03-05T19:35:31.526Z,100731.34
2023-03-05T19:37:59.324Z,100729.66
2023-03-05T19:40:27.162Z,100725.19
2023-03-05T19:42:54.952Z,100721.72
2023-03-05T19:45:22.775Z,100723.53
2023-03-05T19:47:51.894Z,100721.81
2023-03-05T19:50:20.010Z,100721.91
2023-03-05T19:52:47.775Z,100716.56
2023-03-05T19:55:15.826Z,100717.59
2023-03-05T19:57:43.627Z,100720.41
2023-03-05T20:00:12.562Z,100706.91
2023-03-05T20:02:40.339Z,100708.88
2023-03-05T20:05:10.216Z,100708.88
2023-03-05T20:07:38.010Z,100699.09
2023-03-05T20:10:06.746Z,100707.22
2023-03-05T20:12:36.334Z,100694.75
2023-03-05T20:15:04.486Z,100702.03
2023-03-05T20:17:32.213Z,100696.72
2023-03-05T20:20:00.255Z,100696.72
2023-03-05T20:22:29.368Z,100696.72
2023-03-05T20:24:57.257Z,100693.22
2023-03-05T20:27:25.096Z,100685.94
2023-03-05T20:29:52.825Z,100685.06
2023-03-05T20:32:20.579Z,100698.66
2023-03-05T20:34:51.533Z,100691.38
2023-03-05T20:37:19.965Z,100685.19
2023-03-05T20:39:50.968Z,100678.78
2023-03-05T20:42:18.765Z,100677.03
2023-03-05T20:44:46.533Z,100682.47
2023-03-05T20:47:27.979Z,100676.28
2023-03-05T20:49:56.283Z,100669.13
2023-03-05T20:52:24.119Z,100666.41
2023-03-05T20:54:53.335Z,100669.03
2023-03-05T20:57:21.129Z,100662.91
2023-03-05T20:59:49.662Z,100659.34
2023-03-05T21:02:18.375Z,100662.16
2023-03-05T21:04:46.314Z,100657.69
2023-03-05T21:07:14.116Z,100654.00
2023-03-05T21:09:42.191Z,100657.69
2023-03-05T21:12:11.361Z,100653.13
2023-03-05T21:14:40.703Z,100653.25
2023-03-05T21:17:09.382Z,100657.81
2023-03-05T21:19:39.212Z,100644.34
2023-03-05T21:22:07.005Z,100638.16
2023-03-05T21:24:52.002Z,100642.72
2023-03-05T21:27:21.199Z,100638.25
2023-03-05T21:29:48.944Z,100636.50
2023-03-05T21:32:16.941Z,100625.78
2023-03-05T21:34:44.774Z,100620.47
2023-03-05T21:37:13.099Z,100630.34
2023-03-05T21:39:40.839Z,100626.88
2023-03-05T21:42:08.656Z,100618.81
2023-03-05T21:44:37.811Z,100620.56
2023-03-05T21:47:05.765Z,100610.78
2023-03-05T21:49:33.550Z,100612.53
2023-03-05T21:52:09.111Z,100602.63
2023-03-05T21:54:37.351Z,100605.47
2023-03-05T21:57:05.818Z,100601.78
2023-03-05T21:59:34.213Z,100596.34
2023-03-05T22:02:03.382Z,100596.34
2023-03-05T22:04:31.241Z,100593.63
2023-03-05T22:06:59.008Z,100583.63
2023-03-05T22:09:27.112Z,100587.22
2023-03-05T22:11:55.066Z,100583.63
2023-03-05T22:14:22.918Z,100575.50
2023-03-05T22:16:53.163Z,100567.25
2023-03-05T22:19:23.320Z,100559.09
2023-03-05T22:21:51.128Z,100562.78
2023-03-05T22:24:18.940Z,100555.53
2023-03-05T22:26:46.721Z,100551.06
2023-03-05T22:29:16.799Z,100552.03
2023-03-05T22:31:45.309Z,100542.03
2023-03-05T22:34:13.069Z,100543.03
2023-03-05T22:36:42.646Z,100539.34
2023-03-05T22:39:10.430Z,100537.59
2023-03-05T22:41:38.175Z,100534.88
2023-03-05T22:44:06.005Z,100534.88
2023-03-05T22:46:33.838Z,100531.28
2023-03-05T22:49:01.864Z,100526.88
2023-03-05T22:51:29.632Z,100526.88
2023-03-05T22:53:58.722Z,100528.56
2023-03-05T22:56:26.470Z,100524.25
2023-03-05T22:58:54.300Z,100526.09
2023-03-05T23:01:23.368Z,100523.38
2023-03-05T23:03:57.327Z,100520.88
2023-03-05T23:06:25.400Z,100514.59
2023-03-05T23:08:53.116Z,100511.97
2023-03-05T23:11:22.606Z,100527.28
2023-03-05T23:13:50.313Z,100514.81
2023-03-05T23:16:18.205Z,100514.06
2023-03-05T23:18:46.026Z,100509.59
2023-03-05T23:21:13.805Z,100507.88
2023-03-05T23:23:41.568Z,100503.53
2023-03-05T23:26:09.380Z,100501.81
2023-03-05T23:28:38.454Z,100508.09
2023-03-05T23:31:07.365Z,100508.41
2023-03-05T23:33:35.215Z,100494.97
2023-03-05T23:36:03.549Z,100504.94
2023-03-05T23:38:31.520Z,100496.91
2023-03-05T23:41:02.826Z,100500.63
2023-03-05T23:43:31.534Z,100494.31
2023-03-05T23:46:01.756Z,100497.13
2023-03-05T23:48:30.869Z,100491.72
2023-03-05T23:50:58.593Z,100492.78
2023-03-05T23:53:29.309Z,100489.22
2023-03-05T23:55:57.161Z,100486.59
2023-03-05T23:58:25.425Z,100483.00
